Řízení letového provozu České republiky
OPMET data - Ceska Republika Aktualizace: 22.07.2019 13:31:26  UTC
SIGMET / AIRMET - NIL
Warning / Vystraha - NIL
AIREP - NIL
REG QNH
REGIONAL QNH FORECAST ISSUED 2019-07-22 11:43 AREA VALID FM/TL QNH/HPA/ : LKAA 221200/221500 1020 =
 
METAR / SPECI
METAR LKBC 221330Z AUTO VRB07KT 9999 BKN069 27/11 Q1023=
METAR LKCV 221300Z 30005KT 230V350 CAVOK 27/14 Q1023 NOSIG RMK BLU BLU=
METAR COR LKKB 221300Z 29004KT 9999 SCT042 BKN200 27/12 Q1023 NOSIG RMK BLU BLU=
METAR LKKU NIL
METAR LKKV 221330Z 27006KT 200V310 CAVOK 26/10 Q1024 RMK REG QNH 1020=
METAR LKLN 221330Z AUTO 25008KT 210V290 9999 FEW070 BKN150 28/12 Q1023=
METAR LKMT 221330Z 05009KT 010V090 CAVOK 27/12 Q1022 NOSIG RMK REG QNH 1020=
METAR LKNA 221300Z 27009KT 240V300 9999 BKN048 BKN220 26/12 Q1023 NOSIG RMK BLU BLU=
METAR LKPD 221300Z 30008KT 250V350 CAVOK 28/10 Q1022 NOSIG RMK BLU BLU=
METAR LKPJ 221300Z AUTO 25004KT 160V320 9999 SCT064/// BKN078/// 27/15 Q1022=
METAR LKPR 221330Z 28007KT 250V320 CAVOK 28/11 Q1023 NOSIG RMK REG QNH 1020=
METAR LKTB 221330Z 09010KT CAVOK 27/15 Q1022 NOSIG RMK REG QNH 1020=
METAR LKVO 221300Z 30005KT 230V360 CAVOK 28/12 Q1023=
TAF
TAF LKBC NIL
TAF LKCV 221100Z 2212/2312 28005KT CAVOK      BECMG 2308/2310 31008KT=
TAF LKKB 221100Z 2212/2312 24005KT 9999 SCT045      BECMG 2212/2214 CAVOK      BECMG 2218/2220 31004KT=
TAF LKKU NIL
TAF LKKV 221100Z 2212/2318 VRB02KT CAVOK      TEMPO 2212/2218 28009KT 9999 SCT040      BECMG 2307/2310 35007KT=
TAF LKLN NIL
TAF LKMT 221100Z 2212/2318 VRB02KT CAVOK      TEMPO 2212/2218 24010KT 8000 -SHRA SCT040TCU      BECMG 2300/2302 03010KT 9999 BKN030      TEMPO 2302/2315 6000 -RA BKN017=
TAF LKNA 221100Z 2212/2312 30005KT CAVOK      TEMPO 2212/2216 SCT045TCU      BECMG 2218/2220 VRB02KT=
TAF LKPD 221100Z 2212/2312 28008KT CAVOK=
TAF LKPJ NIL
TAF LKPR 221100Z 2212/2318 33006KT CAVOK      TEMPO 2212/2218 25012KT 9999 SCT040      TEMPO 2312/2318 01012G22KT=
TAF LKTB 221100Z 2212/2318 VRB02KT CAVOK      TEMPO 2212/2218 25008KT 8000 -SHRA SCT040TCU      BECMG 2306/2309 34010KT=
TAF LKVO NIL